sensor_id;sensor_type;location;lat;lon;timestamp;P1;durP1;ratioP1;P2;durP2;ratioP2
11004;SDS011;5555;59.622;16.556;2023-02-28T00:02:17;0.20;;;0.20;;
11004;SDS011;5555;59.622;16.556;2023-02-28T00:04:43;0.30;;;0.30;;
11004;SDS011;5555;59.622;16.556;2023-02-28T00:07:09;0.20;;;0.20;;
11004;SDS011;5555;59.622;16.556;2023-02-28T00:09:34;0.50;;;0.40;;
11004;SDS011;5555;59.622;16.556;2023-02-28T00:12:00;0.30;;;0.30;;
11004;SDS011;5555;59.622;16.556;2023-02-28T00:14:34;0.60;;;0.40;;
11004;SDS011;5555;59.622;16.556;2023-02-28T00:17:01;0.20;;;0.20;;
11004;SDS011;5555;59.622;16.556;2023-02-28T00:19:26;0.40;;;0.40;;
11004;SDS011;5555;59.622;16.556;2023-02-28T00:21:52;0.50;;;0.30;;
11004;SDS011;5555;59.622;16.556;2023-02-28T00:24:17;0.33;;;0.33;;
11004;SDS011;5555;59.622;16.556;2023-02-28T00:26:43;0.40;;;0.40;;
11004;SDS011;5555;59.622;16.556;2023-02-28T00:29:09;0.33;;;0.30;;
11004;SDS011;5555;59.622;16.556;2023-02-28T00:31:35;0.30;;;0.30;;
11004;SDS011;5555;59.622;16.556;2023-02-28T00:34:01;0.40;;;0.40;;
11004;SDS011;5555;59.622;16.556;2023-02-28T00:36:26;0.40;;;0.40;;
11004;SDS011;5555;59.622;16.556;2023-02-28T00:38:52;0.30;;;0.30;;
11004;SDS011;5555;59.622;16.556;2023-02-28T00:41:17;0.27;;;0.27;;
11004;SDS011;5555;59.622;16.556;2023-02-28T00:43:43;0.30;;;0.30;;
11004;SDS011;5555;59.622;16.556;2023-02-28T00:46:09;0.37;;;0.30;;
11004;SDS011;5555;59.622;16.556;2023-02-28T00:48:34;0.70;;;0.40;;
11004;SDS011;5555;59.622;16.556;2023-02-28T00:51:00;0.40;;;0.40;;
11004;SDS011;5555;59.622;16.556;2023-02-28T00:53:26;0.70;;;0.50;;
11004;SDS011;5555;59.622;16.556;2023-02-28T00:55:52;0.67;;;0.53;;
11004;SDS011;5555;59.622;16.556;2023-02-28T00:58:17;0.70;;;0.70;;
11004;SDS011;5555;59.622;16.556;2023-02-28T01:00:43;0.30;;;0.30;;
11004;SDS011;5555;59.622;16.556;2023-02-28T01:03:14;0.60;;;0.50;;
11004;SDS011;5555;59.622;16.556;2023-02-28T01:05:43;0.40;;;0.40;;
11004;SDS011;5555;59.622;16.556;2023-02-28T01:08:09;0.30;;;0.30;;
11004;SDS011;5555;59.622;16.556;2023-02-28T01:10:35;0.50;;;0.43;;
11004;SDS011;5555;59.622;16.556;2023-02-28T01:13:01;0.93;;;0.50;;
11004;SDS011;5555;59.622;16.556;2023-02-28T01:15:27;0.80;;;0.40;;
11004;SDS011;5555;59.622;16.556;2023-02-28T01:17:53;0.40;;;0.40;;
11004;SDS011;5555;59.622;16.556;2023-02-28T01:20:19;1.77;;;0.50;;
11004;SDS011;5555;59.622;16.556;2023-02-28T01:22:45;0.73;;;0.40;;
11004;SDS011;5555;59.622;16.556;2023-02-28T01:25:11;0.60;;;0.60;;
11004;SDS011;5555;59.622;16.556;2023-02-28T01:27:37;1.67;;;0.60;;
11004;SDS011;5555;59.622;16.556;2023-02-28T01:30:04;1.20;;;0.53;;
11004;SDS011;5555;59.622;16.556;2023-02-28T01:32:31;1.10;;;0.50;;
11004;SDS011;5555;59.622;16.556;2023-02-28T01:34:57;0.67;;;0.50;;
11004;SDS011;5555;59.622;16.556;2023-02-28T01:37:22;0.57;;;0.40;;
11004;SDS011;5555;59.622;16.556;2023-02-28T01:39:48;1.00;;;0.60;;
11004;SDS011;5555;59.622;16.556;2023-02-28T01:42:14;0.97;;;0.40;;
11004;SDS011;5555;59.622;16.556;2023-02-28T01:44:57;1.63;;;0.70;;
11004;SDS011;5555;59.622;16.556;2023-02-28T01:47:38;1.20;;;0.60;;
11004;SDS011;5555;59.622;16.556;2023-02-28T01:50:07;0.67;;;0.57;;
11004;SDS011;5555;59.622;16.556;2023-02-28T01:52:38;0.70;;;0.50;;
11004;SDS011;5555;59.622;16.556;2023-02-28T01:55:04;0.60;;;0.60;;
11004;SDS011;5555;59.622;16.556;2023-02-28T01:57:35;0.57;;;0.50;;
11004;SDS011;5555;59.622;16.556;2023-02-28T02:00:09;0.57;;;0.57;;
11004;SDS011;5555;59.622;16.556;2023-02-28T02:02:39;0.77;;;0.60;;
11004;SDS011;5555;59.622;16.556;2023-02-28T02:05:12;1.13;;;0.70;;
11004;SDS011;5555;59.622;16.556;2023-02-28T02:07:42;0.70;;;0.60;;
11004;SDS011;5555;59.622;16.556;2023-02-28T02:10:14;1.33;;;0.60;;
11004;SDS011;5555;59.622;16.556;2023-02-28T02:15:29;0.90;;;0.60;;
11004;SDS011;5555;59.622;16.556;2023-02-28T02:18:02;1.37;;;0.70;;
11004;SDS011;5555;59.622;16.556;2023-02-28T02:20:51;0.60;;;0.60;;
11004;SDS011;5555;59.622;16.556;2023-02-28T02:35:18;0.80;;;0.70;;
11004;SDS011;5555;59.622;16.556;2023-02-28T02:40:37;0.90;;;0.60;;
11004;SDS011;5555;59.622;16.556;2023-02-28T02:43:32;1.70;;;0.77;;
11004;SDS011;5555;59.622;16.556;2023-02-28T02:46:19;1.07;;;0.80;;
11004;SDS011;5555;59.622;16.556;2023-02-28T02:48:52;0.70;;;0.60;;
11004;SDS011;5555;59.622;16.556;2023-02-28T02:51:22;1.33;;;0.77;;
11004;SDS011;5555;59.622;16.556;2023-02-28T02:53:50;1.00;;;0.70;;
11004;SDS011;5555;59.622;16.556;2023-02-28T02:56:21;0.93;;;0.70;;
11004;SDS011;5555;59.622;16.556;2023-02-28T02:58:50;1.33;;;0.80;;
11004;SDS011;5555;59.622;16.556;2023-02-28T03:01:20;2.60;;;0.90;;
11004;SDS011;5555;59.622;16.556;2023-02-28T03:03:58;1.00;;;0.70;;
11004;SDS011;5555;59.622;16.556;2023-02-28T03:06:36;1.93;;;1.07;;
11004;SDS011;5555;59.622;16.556;2023-02-28T03:09:02;0.53;;;0.53;;
11004;SDS011;5555;59.622;16.556;2023-02-28T03:11:29;1.23;;;0.70;;
11004;SDS011;5555;59.622;16.556;2023-02-28T03:20:00;1.63;;;0.90;;
11004;SDS011;5555;59.622;16.556;2023-02-28T03:22:45;2.17;;;0.60;;
11004;SDS011;5555;59.622;16.556;2023-02-28T03:25:43;1.00;;;0.80;;
11004;SDS011;5555;59.622;16.556;2023-02-28T03:28:36;0.70;;;0.50;;
11004;SDS011;5555;59.622;16.556;2023-02-28T03:31:22;0.50;;;0.50;;
11004;SDS011;5555;59.622;16.556;2023-02-28T03:34:00;1.00;;;0.70;;
11004;SDS011;5555;59.622;16.556;2023-02-28T03:36:29;0.87;;;0.67;;
11004;SDS011;5555;59.622;16.556;2023-02-28T03:39:09;0.70;;;0.50;;
11004;SDS011;5555;59.622;16.556;2023-02-28T03:41:51;0.83;;;0.53;;
11004;SDS011;5555;59.622;16.556;2023-02-28T03:44:35;0.80;;;0.70;;
11004;SDS011;5555;59.622;16.556;2023-02-28T03:47:10;0.60;;;0.60;;
11004;SDS011;5555;59.622;16.556;2023-02-28T03:49:57;0.80;;;0.67;;
11004;SDS011;5555;59.622;16.556;2023-02-28T03:52:29;0.87;;;0.60;;
11004;SDS011;5555;59.622;16.556;2023-02-28T03:55:01;0.83;;;0.40;;
11004;SDS011;5555;59.622;16.556;2023-02-28T04:00:20;0.90;;;0.63;;
11004;SDS011;5555;59.622;16.556;2023-02-28T04:02:53;0.70;;;0.60;;
11004;SDS011;5555;59.622;16.556;2023-02-28T04:05:19;0.70;;;0.70;;
11004;SDS011;5555;59.622;16.556;2023-02-28T04:07:47;1.47;;;0.60;;
11004;SDS011;5555;59.622;16.556;2023-02-28T04:10:13;2.07;;;0.87;;
11004;SDS011;5555;59.622;16.556;2023-02-28T04:12:41;0.93;;;0.60;;
11004;SDS011;5555;59.622;16.556;2023-02-28T04:15:07;0.80;;;0.53;;
11004;SDS011;5555;59.622;16.556;2023-02-28T04:17:33;2.13;;;0.70;;
11004;SDS011;5555;59.622;16.556;2023-02-28T04:19:59;1.07;;;0.50;;
11004;SDS011;5555;59.622;16.556;2023-02-28T04:22:24;0.80;;;0.60;;
11004;SDS011;5555;59.622;16.556;2023-02-28T04:24:52;1.23;;;0.83;;
11004;SDS011;5555;59.622;16.556;2023-02-28T04:27:19;0.90;;;0.60;;
11004;SDS011;5555;59.622;16.556;2023-02-28T04:29:45;1.80;;;0.87;;
11004;SDS011;5555;59.622;16.556;2023-02-28T04:32:11;0.43;;;0.40;;
11004;SDS011;5555;59.622;16.556;2023-02-28T04:34:37;0.80;;;0.67;;
11004;SDS011;5555;59.622;16.556;2023-02-28T04:37:03;1.17;;;0.90;;
11004;SDS011;5555;59.622;16.556;2023-02-28T04:39:29;1.50;;;1.00;;
11004;SDS011;5555;59.622;16.556;2023-02-28T04:41:54;1.90;;;0.73;;
11004;SDS011;5555;59.622;16.556;2023-02-28T04:44:21;1.17;;;0.90;;
11004;SDS011;5555;59.622;16.556;2023-02-28T04:46:47;0.80;;;0.80;;
11004;SDS011;5555;59.622;16.556;2023-02-28T04:49:13;1.07;;;0.87;;
11004;SDS011;5555;59.622;16.556;2023-02-28T04:51:40;1.50;;;1.17;;
11004;SDS011;5555;59.622;16.556;2023-02-28T04:54:06;1.57;;;0.90;;
11004;SDS011;5555;59.622;16.556;2023-02-28T04:56:32;1.17;;;0.67;;
11004;SDS011;5555;59.622;16.556;2023-02-28T04:58:58;2.07;;;0.90;;
11004;SDS011;5555;59.622;16.556;2023-02-28T05:01:25;1.10;;;1.00;;
11004;SDS011;5555;59.622;16.556;2023-02-28T05:03:55;2.30;;;1.07;;
11004;SDS011;5555;59.622;16.556;2023-02-28T05:06:26;1.30;;;0.83;;
11004;SDS011;5555;59.622;16.556;2023-02-28T05:08:53;1.10;;;0.77;;
11004;SDS011;5555;59.622;16.556;2023-02-28T05:11:29;0.83;;;0.73;;
11004;SDS011;5555;59.622;16.556;2023-02-28T05:14:00;2.43;;;0.87;;
11004;SDS011;5555;59.622;16.556;2023-02-28T05:16:29;1.30;;;0.90;;
11004;SDS011;5555;59.622;16.556;2023-02-28T05:18:55;2.13;;;0.90;;
11004;SDS011;5555;59.622;16.556;2023-02-28T05:21:31;0.93;;;0.67;;
11004;SDS011;5555;59.622;16.556;2023-02-28T05:23:58;1.17;;;0.90;;
11004;SDS011;5555;59.622;16.556;2023-02-28T05:26:25;1.33;;;0.77;;
11004;SDS011;5555;59.622;16.556;2023-02-28T05:28:51;2.13;;;1.00;;
11004;SDS011;5555;59.622;16.556;2023-02-28T05:31:17;1.57;;;1.07;;
11004;SDS011;5555;59.622;16.556;2023-02-28T05:33:43;1.17;;;0.90;;
11004;SDS011;5555;59.622;16.556;2023-02-28T05:36:08;1.77;;;0.60;;
11004;SDS011;5555;59.622;16.556;2023-02-28T05:38:34;1.27;;;1.00;;
11004;SDS011;5555;59.622;16.556;2023-02-28T05:41:00;0.90;;;0.70;;
11004;SDS011;5555;59.622;16.556;2023-02-28T05:43:29;1.50;;;0.97;;
11004;SDS011;5555;59.622;16.556;2023-02-28T05:45:55;0.90;;;0.77;;
11004;SDS011;5555;59.622;16.556;2023-02-28T05:48:21;1.30;;;0.90;;
11004;SDS011;5555;59.622;16.556;2023-02-28T05:50:46;1.60;;;0.90;;
11004;SDS011;5555;59.622;16.556;2023-02-28T05:53:12;1.43;;;1.00;;
11004;SDS011;5555;59.622;16.556;2023-02-28T05:55:38;2.17;;;1.13;;
11004;SDS011;5555;59.622;16.556;2023-02-28T05:58:04;1.97;;;1.40;;
11004;SDS011;5555;59.622;16.556;2023-02-28T06:00:29;1.63;;;1.03;;
11004;SDS011;5555;59.622;16.556;2023-02-28T06:02:55;1.33;;;0.80;;
11004;SDS011;5555;59.622;16.556;2023-02-28T06:05:23;1.60;;;1.10;;
11004;SDS011;5555;59.622;16.556;2023-02-28T06:07:49;1.10;;;0.70;;
11004;SDS011;5555;59.622;16.556;2023-02-28T06:10:15;1.50;;;0.97;;
11004;SDS011;5555;59.622;16.556;2023-02-28T06:12:40;2.97;;;1.43;;
11004;SDS011;5555;59.622;16.556;2023-02-28T06:15:07;2.50;;;1.10;;
11004;SDS011;5555;59.622;16.556;2023-02-28T06:17:36;1.57;;;1.00;;
11004;SDS011;5555;59.622;16.556;2023-02-28T06:20:02;1.07;;;0.97;;
11004;SDS011;5555;59.622;16.556;2023-02-28T06:22:28;3.20;;;1.17;;
11004;SDS011;5555;59.622;16.556;2023-02-28T06:24:54;2.53;;;1.20;;
11004;SDS011;5555;59.622;16.556;2023-02-28T06:27:21;3.07;;;1.10;;
11004;SDS011;5555;59.622;16.556;2023-02-28T06:29:47;1.30;;;1.00;;
11004;SDS011;5555;59.622;16.556;2023-02-28T06:32:13;1.70;;;1.30;;
11004;SDS011;5555;59.622;16.556;2023-02-28T06:34:38;2.90;;;1.00;;
11004;SDS011;5555;59.622;16.556;2023-02-28T06:37:04;1.13;;;0.90;;
11004;SDS011;5555;59.622;16.556;2023-02-28T06:39:30;3.20;;;1.57;;
11004;SDS011;5555;59.622;16.556;2023-02-28T06:41:56;1.40;;;1.00;;
11004;SDS011;5555;59.622;16.556;2023-02-28T06:44:22;2.17;;;1.10;;
11004;SDS011;5555;59.622;16.556;2023-02-28T06:46:48;2.70;;;1.63;;
11004;SDS011;5555;59.622;16.556;2023-02-28T06:49:14;1.80;;;1.50;;
11004;SDS011;5555;59.622;16.556;2023-02-28T06:51:41;4.50;;;1.47;;
11004;SDS011;5555;59.622;16.556;2023-02-28T06:54:10;2.63;;;1.87;;
11004;SDS011;5555;59.622;16.556;2023-02-28T06:56:36;5.03;;;1.43;;
11004;SDS011;5555;59.622;16.556;2023-02-28T06:59:02;5.03;;;1.40;;
11004;SDS011;5555;59.622;16.556;2023-02-28T07:01:28;3.13;;;1.10;;
11004;SDS011;5555;59.622;16.556;2023-02-28T07:03:56;1.50;;;1.20;;
11004;SDS011;5555;59.622;16.556;2023-02-28T07:06:22;6.23;;;1.50;;
11004;SDS011;5555;59.622;16.556;2023-02-28T07:08:48;1.70;;;1.20;;
11004;SDS011;5555;59.622;16.556;2023-02-28T07:11:14;2.70;;;1.13;;
11004;SDS011;5555;59.622;16.556;2023-02-28T07:13:40;1.50;;;0.93;;
11004;SDS011;5555;59.622;16.556;2023-02-28T07:16:06;1.40;;;0.73;;
11004;SDS011;5555;59.622;16.556;2023-02-28T07:18:34;2.67;;;0.93;;
11004;SDS011;5555;59.622;16.556;2023-02-28T07:21:04;0.60;;;0.60;;
11004;SDS011;5555;59.622;16.556;2023-02-28T07:23:32;1.30;;;0.90;;
11004;SDS011;5555;59.622;16.556;2023-02-28T07:25:58;1.83;;;0.70;;
11004;SDS011;5555;59.622;16.556;2023-02-28T07:28:24;2.40;;;0.90;;
11004;SDS011;5555;59.622;16.556;2023-02-28T07:30:50;1.40;;;0.87;;
11004;SDS011;5555;59.622;16.556;2023-02-28T07:33:16;0.97;;;0.70;;
11004;SDS011;5555;59.622;16.556;2023-02-28T07:35:41;1.13;;;0.80;;
11004;SDS011;5555;59.622;16.556;2023-02-28T07:38:07;1.40;;;0.70;;
11004;SDS011;5555;59.622;16.556;2023-02-28T07:40:33;1.77;;;0.80;;
11004;SDS011;5555;59.622;16.556;2023-02-28T07:43:00;1.10;;;0.80;;
11004;SDS011;5555;59.622;16.556;2023-02-28T07:45:26;1.23;;;0.97;;
11004;SDS011;5555;59.622;16.556;2023-02-28T07:47:53;1.33;;;0.83;;
11004;SDS011;5555;59.622;16.556;2023-02-28T07:50:20;0.57;;;0.57;;
11004;SDS011;5555;59.622;16.556;2023-02-28T07:52:46;0.97;;;0.60;;
11004;SDS011;5555;59.622;16.556;2023-02-28T07:55:12;0.43;;;0.43;;
11004;SDS011;5555;59.622;16.556;2023-02-28T07:57:38;0.73;;;0.43;;
11004;SDS011;5555;59.622;16.556;2023-02-28T08:00:05;1.53;;;0.40;;
11004;SDS011;5555;59.622;16.556;2023-02-28T08:02:34;1.53;;;0.50;;
11004;SDS011;5555;59.622;16.556;2023-02-28T08:05:00;3.60;;;0.50;;
11004;SDS011;5555;59.622;16.556;2023-02-28T08:07:26;2.63;;;0.33;;
11004;SDS011;5555;59.622;16.556;2023-02-28T08:09:52;3.30;;;0.97;;
11004;SDS011;5555;59.622;16.556;2023-02-28T08:12:17;2.10;;;0.60;;
11004;SDS011;5555;59.622;16.556;2023-02-28T08:14:43;2.43;;;0.83;;
11004;SDS011;5555;59.622;16.556;2023-02-28T08:17:09;2.27;;;0.53;;
11004;SDS011;5555;59.622;16.556;2023-02-28T08:19:35;1.37;;;0.70;;
11004;SDS011;5555;59.622;16.556;2023-02-28T08:22:01;4.57;;;0.40;;
11004;SDS011;5555;59.622;16.556;2023-02-28T08:24:27;1.33;;;0.63;;
11004;SDS011;5555;59.622;16.556;2023-02-28T08:26:53;8.67;;;1.50;;
11004;SDS011;5555;59.622;16.556;2023-02-28T08:29:19;7.70;;;1.20;;
11004;SDS011;5555;59.622;16.556;2023-02-28T08:31:45;4.90;;;1.23;;
11004;SDS011;5555;59.622;16.556;2023-02-28T08:34:12;8.07;;;1.23;;
11004;SDS011;5555;59.622;16.556;2023-02-28T08:36:39;8.83;;;1.57;;
11004;SDS011;5555;59.622;16.556;2023-02-28T08:39:06;11.80;;;2.03;;
11004;SDS011;5555;59.622;16.556;2023-02-28T08:41:32;4.87;;;1.10;;
11004;SDS011;5555;59.622;16.556;2023-02-28T08:43:58;8.80;;;1.90;;
11004;SDS011;5555;59.622;16.556;2023-02-28T08:46:25;8.03;;;1.30;;
11004;SDS011;5555;59.622;16.556;2023-02-28T08:48:54;5.83;;;1.60;;
11004;SDS011;5555;59.622;16.556;2023-02-28T08:51:21;6.63;;;1.30;;
11004;SDS011;5555;59.622;16.556;2023-02-28T08:53:51;4.43;;;1.13;;
11004;SDS011;5555;59.622;16.556;2023-02-28T08:56:18;6.57;;;1.27;;
11004;SDS011;5555;59.622;16.556;2023-02-28T08:58:45;2.93;;;0.93;;
11004;SDS011;5555;59.622;16.556;2023-02-28T09:01:12;3.43;;;1.10;;
11004;SDS011;5555;59.622;16.556;2023-02-28T09:03:40;10.60;;;1.93;;
11004;SDS011;5555;59.622;16.556;2023-02-28T09:06:07;16.27;;;3.10;;
11004;SDS011;5555;59.622;16.556;2023-02-28T09:08:34;4.50;;;1.20;;
11004;SDS011;5555;59.622;16.556;2023-02-28T09:11:00;9.03;;;1.53;;
11004;SDS011;5555;59.622;16.556;2023-02-28T09:13:26;7.87;;;1.47;;
11004;SDS011;5555;59.622;16.556;2023-02-28T09:15:53;10.03;;;1.90;;
11004;SDS011;5555;59.622;16.556;2023-02-28T09:18:19;5.87;;;1.13;;
11004;SDS011;5555;59.622;16.556;2023-02-28T09:20:45;25.00;;;4.20;;
11004;SDS011;5555;59.622;16.556;2023-02-28T09:23:11;17.67;;;2.63;;
11004;SDS011;5555;59.622;16.556;2023-02-28T09:25:40;7.43;;;1.80;;
11004;SDS011;5555;59.622;16.556;2023-02-28T09:28:11;11.67;;;1.40;;
11004;SDS011;5555;59.622;16.556;2023-02-28T09:30:37;5.63;;;1.43;;
11004;SDS011;5555;59.622;16.556;2023-02-28T09:33:03;6.30;;;1.63;;
11004;SDS011;5555;59.622;16.556;2023-02-28T09:35:28;4.87;;;0.90;;
11004;SDS011;5555;59.622;16.556;2023-02-28T09:37:55;13.17;;;2.40;;
11004;SDS011;5555;59.622;16.556;2023-02-28T09:40:23;1.97;;;0.87;;
11004;SDS011;5555;59.622;16.556;2023-02-28T09:42:54;8.77;;;1.53;;
11004;SDS011;5555;59.622;16.556;2023-02-28T09:45:23;10.30;;;1.90;;
11004;SDS011;5555;59.622;16.556;2023-02-28T09:47:53;2.17;;;0.50;;
11004;SDS011;5555;59.622;16.556;2023-02-28T09:50:31;6.37;;;0.90;;
11004;SDS011;5555;59.622;16.556;2023-02-28T09:53:03;5.20;;;0.63;;
11004;SDS011;5555;59.622;16.556;2023-02-28T09:55:42;0.40;;;0.17;;
11004;SDS011;5555;59.622;16.556;2023-02-28T10:00:59;2.20;;;0.30;;
11004;SDS011;5555;59.622;16.556;2023-02-28T10:03:40;2.93;;;0.60;;
11004;SDS011;5555;59.622;16.556;2023-02-28T10:06:21;1.60;;;0.40;;
11004;SDS011;5555;59.622;16.556;2023-02-28T10:08:58;2.43;;;0.30;;
11004;SDS011;5555;59.622;16.556;2023-02-28T10:11:32;0.87;;;0.30;;
11004;SDS011;5555;59.622;16.556;2023-02-28T10:14:01;2.17;;;0.60;;
11004;SDS011;5555;59.622;16.556;2023-02-28T10:16:35;1.90;;;0.20;;
11004;SDS011;5555;59.622;16.556;2023-02-28T10:19:06;7.40;;;0.70;;
11004;SDS011;5555;59.622;16.556;2023-02-28T10:21:41;2.30;;;0.60;;
11004;SDS011;5555;59.622;16.556;2023-02-28T10:24:19;2.77;;;0.40;;
11004;SDS011;5555;59.622;16.556;2023-02-28T10:26:50;0.30;;;0.20;;
11004;SDS011;5555;59.622;16.556;2023-02-28T10:29:20;0.30;;;0.20;;
11004;SDS011;5555;59.622;16.556;2023-02-28T10:31:46;0.57;;;0.30;;
11004;SDS011;5555;59.622;16.556;2023-02-28T10:34:12;1.40;;;0.40;;
11004;SDS011;5555;59.622;16.556;2023-02-28T10:36:38;0.13;;;0.10;;
11004;SDS011;5555;59.622;16.556;2023-02-28T10:41:59;1.00;;;0.20;;
11004;SDS011;5555;59.622;16.556;2023-02-28T10:44:25;0.40;;;0.17;;
11004;SDS011;5555;59.622;16.556;2023-02-28T10:46:51;0.70;;;0.20;;
11004;SDS011;5555;59.622;16.556;2023-02-28T10:49:21;0.30;;;0.20;;
11004;SDS011;5555;59.622;16.556;2023-02-28T10:51:51;0.77;;;0.30;;
11004;SDS011;5555;59.622;16.556;2023-02-28T10:54:24;1.80;;;0.47;;
11004;SDS011;5555;59.622;16.556;2023-02-28T10:57:19;0.33;;;0.13;;
11004;SDS011;5555;59.622;16.556;2023-02-28T10:59:51;0.33;;;0.20;;
11004;SDS011;5555;59.622;16.556;2023-02-28T11:02:34;0.83;;;0.20;;
11004;SDS011;5555;59.622;16.556;2023-02-28T11:05:02;1.10;;;0.30;;
11004;SDS011;5555;59.622;16.556;2023-02-28T11:07:50;5.20;;;0.57;;
11004;SDS011;5555;59.622;16.556;2023-02-28T11:10:19;3.53;;;0.50;;
11004;SDS011;5555;59.622;16.556;2023-02-28T11:12:46;0.60;;;0.20;;
11004;SDS011;5555;59.622;16.556;2023-02-28T11:15:22;1.07;;;0.20;;
11004;SDS011;5555;59.622;16.556;2023-02-28T11:17:56;0.30;;;0.20;;
11004;SDS011;5555;59.622;16.556;2023-02-28T11:20:26;1.47;;;0.40;;
11004;SDS011;5555;59.622;16.556;2023-02-28T11:22:58;0.77;;;0.33;;
11004;SDS011;5555;59.622;16.556;2023-02-28T11:25:30;0.40;;;0.20;;
11004;SDS011;5555;59.622;16.556;2023-02-28T11:27:59;0.37;;;0.20;;
11004;SDS011;5555;59.622;16.556;2023-02-28T11:30:32;7.07;;;0.50;;
11004;SDS011;5555;59.622;16.556;2023-02-28T11:36:21;4.30;;;0.87;;
11004;SDS011;5555;59.622;16.556;2023-02-28T11:38:52;3.90;;;0.60;;
11004;SDS011;5555;59.622;16.556;2023-02-28T11:47:03;2.00;;;0.37;;
11004;SDS011;5555;59.622;16.556;2023-02-28T11:49:48;1.20;;;0.30;;
11004;SDS011;5555;59.622;16.556;2023-02-28T11:55:17;1.50;;;0.20;;
11004;SDS011;5555;59.622;16.556;2023-02-28T12:03:38;0.10;;;0.10;;
11004;SDS011;5555;59.622;16.556;2023-02-28T12:08:57;0.87;;;0.30;;
11004;SDS011;5555;59.622;16.556;2023-02-28T12:25:43;6.40;;;0.60;;
11004;SDS011;5555;59.622;16.556;2023-02-28T12:28:20;4.93;;;1.00;;
11004;SDS011;5555;59.622;16.556;2023-02-28T12:30:50;8.87;;;1.47;;
11004;SDS011;5555;59.622;16.556;2023-02-28T12:33:25;0.93;;;0.70;;
11004;SDS011;5555;59.622;16.556;2023-02-28T12:35:58;0.40;;;0.20;;
11004;SDS011;5555;59.622;16.556;2023-02-28T12:38:28;5.33;;;0.80;;
11004;SDS011;5555;59.622;16.556;2023-02-28T12:41:03;1.33;;;0.40;;
11004;SDS011;5555;59.622;16.556;2023-02-28T12:43:42;3.53;;;0.67;;
11004;SDS011;5555;59.622;16.556;2023-02-28T12:46:16;7.67;;;0.70;;
11004;SDS011;5555;59.622;16.556;2023-02-28T12:48:55;5.00;;;0.50;;
11004;SDS011;5555;59.622;16.556;2023-02-28T12:51:23;2.43;;;0.70;;
11004;SDS011;5555;59.622;16.556;2023-02-28T12:56:46;2.53;;;0.77;;
11004;SDS011;5555;59.622;16.556;2023-02-28T12:59:23;1.03;;;0.27;;
11004;SDS011;5555;59.622;16.556;2023-02-28T13:02:18;2.10;;;0.47;;
11004;SDS011;5555;59.622;16.556;2023-02-28T13:07:33;2.73;;;0.20;;
11004;SDS011;5555;59.622;16.556;2023-02-28T13:10:14;2.10;;;0.23;;
11004;SDS011;5555;59.622;16.556;2023-02-28T13:12:51;0.43;;;0.10;;
11004;SDS011;5555;59.622;16.556;2023-02-28T13:15:24;4.10;;;0.40;;
11004;SDS011;5555;59.622;16.556;2023-02-28T13:17:54;0.30;;;0.10;;
11004;SDS011;5555;59.622;16.556;2023-02-28T13:20:46;1.97;;;0.40;;
11004;SDS011;5555;59.622;16.556;2023-02-28T13:26:03;0.37;;;0.10;;
11004;SDS011;5555;59.622;16.556;2023-02-28T13:31:13;3.17;;;0.37;;
11004;SDS011;5555;59.622;16.556;2023-02-28T13:38:43;2.53;;;0.13;;
11004;SDS011;5555;59.622;16.556;2023-02-28T13:44:09;7.80;;;1.10;;
11004;SDS011;5555;59.622;16.556;2023-02-28T13:47:20;0.53;;;0.10;;
11004;SDS011;5555;59.622;16.556;2023-02-28T13:49:26;0.97;;;0.20;;
11004;SDS011;5555;59.622;16.556;2023-02-28T13:52:02;0.80;;;0.33;;
11004;SDS011;5555;59.622;16.556;2023-02-28T14:06:25;0.50;;;0.10;;
11004;SDS011;5555;59.622;16.556;2023-02-28T14:11:34;0.60;;;0.23;;
11004;SDS011;5555;59.622;16.556;2023-02-28T14:14:02;1.27;;;0.50;;
11004;SDS011;5555;59.622;16.556;2023-02-28T14:19:12;3.43;;;0.80;;
11004;SDS011;5555;59.622;16.556;2023-02-28T14:30:26;3.70;;;0.63;;
11004;SDS011;5555;59.622;16.556;2023-02-28T14:38:25;2.83;;;0.67;;
11004;SDS011;5555;59.622;16.556;2023-02-28T14:40:58;10.93;;;1.77;;
11004;SDS011;5555;59.622;16.556;2023-02-28T14:43:26;11.53;;;1.67;;
11004;SDS011;5555;59.622;16.556;2023-02-28T14:45:58;6.57;;;0.80;;
11004;SDS011;5555;59.622;16.556;2023-02-28T14:48:26;4.40;;;1.00;;
11004;SDS011;5555;59.622;16.556;2023-02-28T14:50:53;3.07;;;0.57;;
11004;SDS011;5555;59.622;16.556;2023-02-28T14:53:25;6.40;;;0.70;;
11004;SDS011;5555;59.622;16.556;2023-02-28T14:55:53;4.90;;;1.10;;
11004;SDS011;5555;59.622;16.556;2023-02-28T14:58:28;1.43;;;0.30;;
11004;SDS011;5555;59.622;16.556;2023-02-28T15:00:56;8.77;;;1.43;;
11004;SDS011;5555;59.622;16.556;2023-02-28T15:06:18;5.90;;;1.13;;
11004;SDS011;5555;59.622;16.556;2023-02-28T15:08:44;10.13;;;1.00;;
11004;SDS011;5555;59.622;16.556;2023-02-28T15:16:12;9.60;;;1.80;;
11004;SDS011;5555;59.622;16.556;2023-02-28T15:18:43;12.97;;;2.13;;
11004;SDS011;5555;59.622;16.556;2023-02-28T15:21:13;7.17;;;1.43;;
11004;SDS011;5555;59.622;16.556;2023-02-28T15:23:44;21.50;;;2.57;;
11004;SDS011;5555;59.622;16.556;2023-02-28T15:26:16;20.93;;;3.30;;
11004;SDS011;5555;59.622;16.556;2023-02-28T15:28:47;23.00;;;2.97;;
11004;SDS011;5555;59.622;16.556;2023-02-28T15:31:28;13.13;;;2.00;;
11004;SDS011;5555;59.622;16.556;2023-02-28T15:33:58;23.33;;;2.87;;
11004;SDS011;5555;59.622;16.556;2023-02-28T15:36:30;23.67;;;3.17;;
11004;SDS011;5555;59.622;16.556;2023-02-28T15:38:58;26.87;;;2.90;;
11004;SDS011;5555;59.622;16.556;2023-02-28T15:41:35;24.80;;;3.43;;
11004;SDS011;5555;59.622;16.556;2023-02-28T15:47:04;11.17;;;1.73;;
11004;SDS011;5555;59.622;16.556;2023-02-28T15:49:44;15.47;;;1.80;;
11004;SDS011;5555;59.622;16.556;2023-02-28T15:52:14;17.37;;;3.07;;
11004;SDS011;5555;59.622;16.556;2023-02-28T15:54:42;18.60;;;3.77;;
11004;SDS011;5555;59.622;16.556;2023-02-28T15:57:22;33.43;;;3.97;;
11004;SDS011;5555;59.622;16.556;2023-02-28T15:59:57;24.90;;;4.23;;
11004;SDS011;5555;59.622;16.556;2023-02-28T16:02:38;25.00;;;3.73;;
11004;SDS011;5555;59.622;16.556;2023-02-28T16:07:39;20.07;;;3.27;;
11004;SDS011;5555;59.622;16.556;2023-02-28T16:10:06;14.93;;;2.40;;
11004;SDS011;5555;59.622;16.556;2023-02-28T16:12:35;22.90;;;3.43;;
11004;SDS011;5555;59.622;16.556;2023-02-28T16:15:03;22.50;;;3.47;;
11004;SDS011;5555;59.622;16.556;2023-02-28T16:17:33;21.17;;;3.63;;
11004;SDS011;5555;59.622;16.556;2023-02-28T16:20:00;23.30;;;3.43;;
11004;SDS011;5555;59.622;16.556;2023-02-28T16:22:30;18.50;;;2.93;;
11004;SDS011;5555;59.622;16.556;2023-02-28T16:24:56;14.47;;;2.33;;
11004;SDS011;5555;59.622;16.556;2023-02-28T16:27:24;12.80;;;2.27;;
11004;SDS011;5555;59.622;16.556;2023-02-28T16:29:58;12.43;;;3.07;;
11004;SDS011;5555;59.622;16.556;2023-02-28T16:32:23;18.33;;;3.20;;
11004;SDS011;5555;59.622;16.556;2023-02-28T16:34:49;14.67;;;2.80;;
11004;SDS011;5555;59.622;16.556;2023-02-28T16:37:16;15.53;;;2.80;;
11004;SDS011;5555;59.622;16.556;2023-02-28T16:39:43;11.13;;;1.80;;
11004;SDS011;5555;59.622;16.556;2023-02-28T16:42:15;16.87;;;2.00;;
11004;SDS011;5555;59.622;16.556;2023-02-28T16:44:47;14.13;;;2.97;;
11004;SDS011;5555;59.622;16.556;2023-02-28T16:47:13;21.03;;;3.20;;
11004;SDS011;5555;59.622;16.556;2023-02-28T16:49:38;18.83;;;2.93;;
11004;SDS011;5555;59.622;16.556;2023-02-28T16:52:07;23.73;;;4.17;;
11004;SDS011;5555;59.622;16.556;2023-02-28T16:54:33;17.50;;;2.57;;
11004;SDS011;5555;59.622;16.556;2023-02-28T16:56:58;20.37;;;2.40;;
11004;SDS011;5555;59.622;16.556;2023-02-28T16:59:24;18.87;;;3.67;;
11004;SDS011;5555;59.622;16.556;2023-02-28T17:01:52;12.10;;;2.27;;
11004;SDS011;5555;59.622;16.556;2023-02-28T17:04:18;24.57;;;2.80;;
11004;SDS011;5555;59.622;16.556;2023-02-28T17:06:44;13.37;;;2.27;;
11004;SDS011;5555;59.622;16.556;2023-02-28T17:09:14;16.40;;;2.33;;
11004;SDS011;5555;59.622;16.556;2023-02-28T17:11:42;14.77;;;2.30;;